sensor_id;sensor_type;location;lat;lon;timestamp;temperature;humidity
17740;DHT22;8990;33.226;-97.150;2023-05-10T00:02:18;27.70;99.90
17740;DHT22;8990;33.226;-97.150;2023-05-10T00:04:46;27.70;99.90
17740;DHT22;8990;33.226;-97.150;2023-05-10T00:07:15;27.70;99.90
17740;DHT22;8990;33.226;-97.150;2023-05-10T00:09:45;27.70;99.90
17740;DHT22;8990;33.226;-97.150;2023-05-10T00:12:14;27.60;99.90
17740;DHT22;8990;33.226;-97.150;2023-05-10T00:14:43;27.60;99.90
17740;DHT22;8990;33.226;-97.150;2023-05-10T00:17:13;27.50;99.90
17740;DHT22;8990;33.226;-97.150;2023-05-10T00:19:43;27.50;99.90
17740;DHT22;8990;33.226;-97.150;2023-05-10T00:22:12;27.30;99.90
17740;DHT22;8990;33.226;-97.150;2023-05-10T00:24:41;27.40;99.90
17740;DHT22;8990;33.226;-97.150;2023-05-10T00:27:10;27.30;99.90
17740;DHT22;8990;33.226;-97.150;2023-05-10T00:29:39;27.40;99.90
17740;DHT22;8990;33.226;-97.150;2023-05-10T00:32:10;27.30;99.90
17740;DHT22;8990;33.226;-97.150;2023-05-10T00:34:42;27.30;99.90
17740;DHT22;8990;33.226;-97.150;2023-05-10T00:37:12;27.30;99.90
17740;DHT22;8990;33.226;-97.150;2023-05-10T00:39:41;27.30;99.90
17740;DHT22;8990;33.226;-97.150;2023-05-10T00:42:10;27.20;99.90
17740;DHT22;8990;33.226;-97.150;2023-05-10T00:44:39;27.10;99.90
17740;DHT22;8990;33.226;-97.150;2023-05-10T00:47:08;27.20;99.90
17740;DHT22;8990;33.226;-97.150;2023-05-10T00:49:38;27.10;99.90
17740;DHT22;8990;33.226;-97.150;2023-05-10T00:52:09;27.10;99.90
17740;DHT22;8990;33.226;-97.150;2023-05-10T00:54:38;27.10;99.90
17740;DHT22;8990;33.226;-97.150;2023-05-10T00:57:07;27.10;99.90
17740;DHT22;8990;33.226;-97.150;2023-05-10T00:59:36;27.10;99.90
17740;DHT22;8990;33.226;-97.150;2023-05-10T01:02:06;27.10;99.90
17740;DHT22;8990;33.226;-97.150;2023-05-10T01:04:35;27.10;99.90
17740;DHT22;8990;33.226;-97.150;2023-05-10T01:07:04;27.00;99.90
17740;DHT22;8990;33.226;-97.150;2023-05-10T01:09:35;27.10;99.90
17740;DHT22;8990;33.226;-97.150;2023-05-10T01:12:05;27.00;99.90
17740;DHT22;8990;33.226;-97.150;2023-05-10T01:14:36;26.90;99.90
17740;DHT22;8990;33.226;-97.150;2023-05-10T01:17:08;26.90;99.90
17740;DHT22;8990;33.226;-97.150;2023-05-10T01:19:37;26.90;99.90
17740;DHT22;8990;33.226;-97.150;2023-05-10T01:22:14;26.90;99.90
17740;DHT22;8990;33.226;-97.150;2023-05-10T01:25:04;26.80;99.90
17740;DHT22;8990;33.226;-97.150;2023-05-10T01:28:05;26.80;99.90
17740;DHT22;8990;33.226;-97.150;2023-05-10T01:30:51;26.80;99.90
17740;DHT22;8990;33.226;-97.150;2023-05-10T01:33:27;26.80;99.90
17740;DHT22;8990;33.226;-97.150;2023-05-10T01:36:05;26.80;99.90
17740;DHT22;8990;33.226;-97.150;2023-05-10T01:38:43;26.70;99.90
17740;DHT22;8990;33.226;-97.150;2023-05-10T01:41:17;26.70;99.90
17740;DHT22;8990;33.226;-97.150;2023-05-10T01:43:55;26.60;99.90
17740;DHT22;8990;33.226;-97.150;2023-05-10T01:46:31;26.60;99.90
17740;DHT22;8990;33.226;-97.150;2023-05-10T01:49:06;26.60;99.90
17740;DHT22;8990;33.226;-97.150;2023-05-10T01:51:41;26.60;99.90
17740;DHT22;8990;33.226;-97.150;2023-05-10T01:54:13;26.60;99.90
17740;DHT22;8990;33.226;-97.150;2023-05-10T01:56:44;26.50;99.90
17740;DHT22;8990;33.226;-97.150;2023-05-10T01:59:18;26.50;99.90
17740;DHT22;8990;33.226;-97.150;2023-05-10T02:01:48;26.50;99.90
17740;DHT22;8990;33.226;-97.150;2023-05-10T02:04:20;26.60;99.90
17740;DHT22;8990;33.226;-97.150;2023-05-10T02:06:52;26.60;99.90
17740;DHT22;8990;33.226;-97.150;2023-05-10T02:09:22;26.70;99.90
17740;DHT22;8990;33.226;-97.150;2023-05-10T02:11:53;26.70;99.90
17740;DHT22;8990;33.226;-97.150;2023-05-10T02:14:22;26.70;99.90
17740;DHT22;8990;33.226;-97.150;2023-05-10T02:16:54;26.60;99.90
17740;DHT22;8990;33.226;-97.150;2023-05-10T02:19:28;26.60;99.90
17740;DHT22;8990;33.226;-97.150;2023-05-10T02:21:57;26.50;99.90
17740;DHT22;8990;33.226;-97.150;2023-05-10T02:24:28;26.50;99.90
17740;DHT22;8990;33.226;-97.150;2023-05-10T02:26:57;26.60;99.90
17740;DHT22;8990;33.226;-97.150;2023-05-10T02:29:27;26.50;99.90
17740;DHT22;8990;33.226;-97.150;2023-05-10T02:31:57;26.50;99.90
17740;DHT22;8990;33.226;-97.150;2023-05-10T02:34:28;26.50;99.90
17740;DHT22;8990;33.226;-97.150;2023-05-10T02:36:59;26.40;99.90
17740;DHT22;8990;33.226;-97.150;2023-05-10T02:39:29;26.40;99.90
17740;DHT22;8990;33.226;-97.150;2023-05-10T02:41:58;26.40;99.90
17740;DHT22;8990;33.226;-97.150;2023-05-10T02:44:30;26.40;99.90
17740;DHT22;8990;33.226;-97.150;2023-05-10T02:47:00;26.40;99.90
17740;DHT22;8990;33.226;-97.150;2023-05-10T02:49:32;26.40;99.90
17740;DHT22;8990;33.226;-97.150;2023-05-10T02:52:05;26.50;99.90
17740;DHT22;8990;33.226;-97.150;2023-05-10T02:54:41;26.50;99.90
17740;DHT22;8990;33.226;-97.150;2023-05-10T02:57:16;26.40;99.90
17740;DHT22;8990;33.226;-97.150;2023-05-10T02:59:46;26.30;99.90
17740;DHT22;8990;33.226;-97.150;2023-05-10T03:02:15;26.30;99.90
17740;DHT22;8990;33.226;-97.150;2023-05-10T03:04:46;26.30;99.90
17740;DHT22;8990;33.226;-97.150;2023-05-10T03:07:15;26.20;99.90
17740;DHT22;8990;33.226;-97.150;2023-05-10T03:09:48;26.20;99.90
17740;DHT22;8990;33.226;-97.150;2023-05-10T03:12:23;26.10;99.90
17740;DHT22;8990;33.226;-97.150;2023-05-10T03:15:00;26.10;99.90
17740;DHT22;8990;33.226;-97.150;2023-05-10T03:17:45;26.10;99.90
17740;DHT22;8990;33.226;-97.150;2023-05-10T03:20:24;26.20;99.90
17740;DHT22;8990;33.226;-97.150;2023-05-10T03:23:02;26.10;99.90
17740;DHT22;8990;33.226;-97.150;2023-05-10T03:25:33;26.10;99.90
17740;DHT22;8990;33.226;-97.150;2023-05-10T03:28:05;26.10;99.90
17740;DHT22;8990;33.226;-97.150;2023-05-10T03:30:36;26.10;99.90
17740;DHT22;8990;33.226;-97.150;2023-05-10T03:33:06;26.10;99.90
17740;DHT22;8990;33.226;-97.150;2023-05-10T03:35:41;26.00;99.90
17740;DHT22;8990;33.226;-97.150;2023-05-10T03:38:13;25.90;99.90
17740;DHT22;8990;33.226;-97.150;2023-05-10T03:40:42;25.90;99.90
17740;DHT22;8990;33.226;-97.150;2023-05-10T03:43:12;25.90;99.90
17740;DHT22;8990;33.226;-97.150;2023-05-10T03:45:40;25.90;99.90
17740;DHT22;8990;33.226;-97.150;2023-05-10T03:48:09;25.80;99.90
17740;DHT22;8990;33.226;-97.150;2023-05-10T03:50:43;25.80;99.90
17740;DHT22;8990;33.226;-97.150;2023-05-10T03:53:12;25.80;99.90
17740;DHT22;8990;33.226;-97.150;2023-05-10T03:55:41;25.80;99.90
17740;DHT22;8990;33.226;-97.150;2023-05-10T03:58:11;25.80;99.90
17740;DHT22;8990;33.226;-97.150;2023-05-10T04:00:40;25.70;99.90
17740;DHT22;8990;33.226;-97.150;2023-05-10T04:03:13;25.70;99.90
17740;DHT22;8990;33.226;-97.150;2023-05-10T04:05:44;25.70;99.90
17740;DHT22;8990;33.226;-97.150;2023-05-10T04:08:13;25.80;99.90
17740;DHT22;8990;33.226;-97.150;2023-05-10T04:10:43;25.80;99.90
17740;DHT22;8990;33.226;-97.150;2023-05-10T04:13:12;25.80;99.90
17740;DHT22;8990;33.226;-97.150;2023-05-10T04:15:41;25.80;99.90
17740;DHT22;8990;33.226;-97.150;2023-05-10T04:18:10;25.80;99.90
17740;DHT22;8990;33.226;-97.150;2023-05-10T04:20:39;25.60;99.90
17740;DHT22;8990;33.226;-97.150;2023-05-10T04:23:09;25.60;99.90
17740;DHT22;8990;33.226;-97.150;2023-05-10T04:25:38;25.60;99.90
17740;DHT22;8990;33.226;-97.150;2023-05-10T04:28:08;25.50;99.90
17740;DHT22;8990;33.226;-97.150;2023-05-10T04:30:37;25.50;99.90
17740;DHT22;8990;33.226;-97.150;2023-05-10T04:33:07;25.50;99.90
17740;DHT22;8990;33.226;-97.150;2023-05-10T04:35:36;25.40;99.90
17740;DHT22;8990;33.226;-97.150;2023-05-10T04:38:05;25.40;99.90
17740;DHT22;8990;33.226;-97.150;2023-05-10T04:40:36;25.50;99.90
17740;DHT22;8990;33.226;-97.150;2023-05-10T04:43:05;25.40;99.90
17740;DHT22;8990;33.226;-97.150;2023-05-10T04:45:34;25.40;99.90
17740;DHT22;8990;33.226;-97.150;2023-05-10T04:48:03;25.30;99.90
17740;DHT22;8990;33.226;-97.150;2023-05-10T04:50:32;25.30;99.90
17740;DHT22;8990;33.226;-97.150;2023-05-10T04:53:01;25.30;99.90
17740;DHT22;8990;33.226;-97.150;2023-05-10T04:55:29;25.30;99.90
17740;DHT22;8990;33.226;-97.150;2023-05-10T04:58:00;25.20;99.90
17740;DHT22;8990;33.226;-97.150;2023-05-10T05:00:29;25.20;99.90
17740;DHT22;8990;33.226;-97.150;2023-05-10T05:02:58;25.20;99.90
17740;DHT22;8990;33.226;-97.150;2023-05-10T05:05:27;25.10;99.90
17740;DHT22;8990;33.226;-97.150;2023-05-10T05:07:57;25.20;99.90
17740;DHT22;8990;33.226;-97.150;2023-05-10T05:10:26;25.20;99.90
17740;DHT22;8990;33.226;-97.150;2023-05-10T05:12:56;25.10;99.90
17740;DHT22;8990;33.226;-97.150;2023-05-10T05:15:26;25.10;99.90
17740;DHT22;8990;33.226;-97.150;2023-05-10T05:17:56;25.00;99.90
17740;DHT22;8990;33.226;-97.150;2023-05-10T05:20:26;25.00;99.90
17740;DHT22;8990;33.226;-97.150;2023-05-10T05:22:54;25.00;99.90
17740;DHT22;8990;33.226;-97.150;2023-05-10T05:25:23;25.00;99.90
17740;DHT22;8990;33.226;-97.150;2023-05-10T05:27:52;25.00;99.90
17740;DHT22;8990;33.226;-97.150;2023-05-10T05:30:21;24.90;99.90
17740;DHT22;8990;33.226;-97.150;2023-05-10T05:32:52;24.90;99.90
17740;DHT22;8990;33.226;-97.150;2023-05-10T05:35:21;24.90;99.90
17740;DHT22;8990;33.226;-97.150;2023-05-10T05:37:50;24.90;99.90
17740;DHT22;8990;33.226;-97.150;2023-05-10T05:40:19;24.90;99.90
17740;DHT22;8990;33.226;-97.150;2023-05-10T05:42:48;24.90;99.90
17740;DHT22;8990;33.226;-97.150;2023-05-10T05:45:17;24.90;99.90
17740;DHT22;8990;33.226;-97.150;2023-05-10T05:47:46;24.90;99.90
17740;DHT22;8990;33.226;-97.150;2023-05-10T05:50:17;24.90;99.90
17740;DHT22;8990;33.226;-97.150;2023-05-10T05:52:46;24.90;99.90
17740;DHT22;8990;33.226;-97.150;2023-05-10T05:55:16;24.90;99.90
17740;DHT22;8990;33.226;-97.150;2023-05-10T05:57:45;24.90;99.90
17740;DHT22;8990;33.226;-97.150;2023-05-10T06:00:14;24.90;99.90
17740;DHT22;8990;33.226;-97.150;2023-05-10T06:02:45;24.90;99.90
17740;DHT22;8990;33.226;-97.150;2023-05-10T06:05:16;24.80;99.90
17740;DHT22;8990;33.226;-97.150;2023-05-10T06:07:45;24.80;99.90
17740;DHT22;8990;33.226;-97.150;2023-05-10T06:10:14;24.80;99.90
17740;DHT22;8990;33.226;-97.150;2023-05-10T06:12:43;24.80;99.90
17740;DHT22;8990;33.226;-97.150;2023-05-10T06:15:12;24.80;99.90
17740;DHT22;8990;33.226;-97.150;2023-05-10T06:17:41;24.80;99.90
17740;DHT22;8990;33.226;-97.150;2023-05-10T06:20:12;24.60;99.90
17740;DHT22;8990;33.226;-97.150;2023-05-10T06:22:43;24.60;99.90
17740;DHT22;8990;33.226;-97.150;2023-05-10T06:25:12;24.60;99.90
17740;DHT22;8990;33.226;-97.150;2023-05-10T06:27:41;24.60;99.90
17740;DHT22;8990;33.226;-97.150;2023-05-10T06:30:10;24.50;99.90
17740;DHT22;8990;33.226;-97.150;2023-05-10T06:32:40;24.60;99.90
17740;DHT22;8990;33.226;-97.150;2023-05-10T06:35:10;24.40;99.90
17740;DHT22;8990;33.226;-97.150;2023-05-10T06:37:39;24.40;99.90
17740;DHT22;8990;33.226;-97.150;2023-05-10T06:40:10;24.40;99.90
17740;DHT22;8990;33.226;-97.150;2023-05-10T06:42:40;24.40;99.90
17740;DHT22;8990;33.226;-97.150;2023-05-10T06:45:10;24.30;99.90
17740;DHT22;8990;33.226;-97.150;2023-05-10T06:47:39;24.30;99.90
17740;DHT22;8990;33.226;-97.150;2023-05-10T06:50:09;24.30;99.90
17740;DHT22;8990;33.226;-97.150;2023-05-10T06:52:38;24.30;99.90
17740;DHT22;8990;33.226;-97.150;2023-05-10T06:55:09;24.40;99.90
17740;DHT22;8990;33.226;-97.150;2023-05-10T06:57:38;24.40;99.90
17740;DHT22;8990;33.226;-97.150;2023-05-10T07:00:08;24.50;99.90
17740;DHT22;8990;33.226;-97.150;2023-05-10T07:02:38;24.50;99.90
17740;DHT22;8990;33.226;-97.150;2023-05-10T07:05:07;24.40;99.90
17740;DHT22;8990;33.226;-97.150;2023-05-10T07:07:36;24.40;99.90
17740;DHT22;8990;33.226;-97.150;2023-05-10T07:10:06;24.40;99.90
17740;DHT22;8990;33.226;-97.150;2023-05-10T07:12:37;24.40;99.90
17740;DHT22;8990;33.226;-97.150;2023-05-10T07:15:07;24.40;99.90
17740;DHT22;8990;33.226;-97.150;2023-05-10T07:17:36;24.40;99.90
17740;DHT22;8990;33.226;-97.150;2023-05-10T07:20:06;24.40;99.90
17740;DHT22;8990;33.226;-97.150;2023-05-10T07:22:35;24.30;99.90
17740;DHT22;8990;33.226;-97.150;2023-05-10T07:25:05;24.30;99.90
17740;DHT22;8990;33.226;-97.150;2023-05-10T07:27:34;24.20;99.90
17740;DHT22;8990;33.226;-97.150;2023-05-10T07:30:06;24.20;99.90
17740;DHT22;8990;33.226;-97.150;2023-05-10T07:32:35;24.20;99.90
17740;DHT22;8990;33.226;-97.150;2023-05-10T07:35:06;24.20;99.90
17740;DHT22;8990;33.226;-97.150;2023-05-10T07:37:35;24.10;99.90
17740;DHT22;8990;33.226;-97.150;2023-05-10T07:40:04;24.10;99.90
17740;DHT22;8990;33.226;-97.150;2023-05-10T07:42:34;24.10;99.90
17740;DHT22;8990;33.226;-97.150;2023-05-10T07:45:04;24.00;99.90
17740;DHT22;8990;33.226;-97.150;2023-05-10T07:47:33;24.10;99.90
17740;DHT22;8990;33.226;-97.150;2023-05-10T07:50:02;24.00;99.90
17740;DHT22;8990;33.226;-97.150;2023-05-10T07:52:31;24.00;99.90
17740;DHT22;8990;33.226;-97.150;2023-05-10T07:55:00;24.00;99.90
17740;DHT22;8990;33.226;-97.150;2023-05-10T07:57:29;23.90;99.90
17740;DHT22;8990;33.226;-97.150;2023-05-10T07:59:58;23.90;99.90
17740;DHT22;8990;33.226;-97.150;2023-05-10T08:02:28;23.90;99.90
17740;DHT22;8990;33.226;-97.150;2023-05-10T08:04:57;23.90;99.90
17740;DHT22;8990;33.226;-97.150;2023-05-10T08:07:26;23.90;99.90
17740;DHT22;8990;33.226;-97.150;2023-05-10T08:09:56;23.90;99.90
17740;DHT22;8990;33.226;-97.150;2023-05-10T08:12:25;23.90;99.90
17740;DHT22;8990;33.226;-97.150;2023-05-10T08:14:54;23.90;99.90
17740;DHT22;8990;33.226;-97.150;2023-05-10T08:17:23;23.90;99.90
17740;DHT22;8990;33.226;-97.150;2023-05-10T08:19:54;23.80;99.90
17740;DHT22;8990;33.226;-97.150;2023-05-10T08:22:23;23.60;99.90
17740;DHT22;8990;33.226;-97.150;2023-05-10T08:24:52;23.70;99.90
17740;DHT22;8990;33.226;-97.150;2023-05-10T08:27:21;23.60;99.90
17740;DHT22;8990;33.226;-97.150;2023-05-10T08:29:50;23.60;99.90
17740;DHT22;8990;33.226;-97.150;2023-05-10T08:32:19;23.60;99.90
17740;DHT22;8990;33.226;-97.150;2023-05-10T08:34:48;23.60;99.90
17740;DHT22;8990;33.226;-97.150;2023-05-10T08:37:18;23.60;99.90
17740;DHT22;8990;33.226;-97.150;2023-05-10T08:39:47;23.60;99.90
17740;DHT22;8990;33.226;-97.150;2023-05-10T08:42:19;23.60;99.90
17740;DHT22;8990;33.226;-97.150;2023-05-10T08:44:48;23.60;99.90
17740;DHT22;8990;33.226;-97.150;2023-05-10T08:47:18;23.60;99.90
17740;DHT22;8990;33.226;-97.150;2023-05-10T08:49:48;23.60;99.90
17740;DHT22;8990;33.226;-97.150;2023-05-10T08:52:19;23.50;99.90
17740;DHT22;8990;33.226;-97.150;2023-05-10T08:54:50;23.50;99.90
17740;DHT22;8990;33.226;-97.150;2023-05-10T08:57:19;23.50;99.90
17740;DHT22;8990;33.226;-97.150;2023-05-10T08:59:48;23.50;99.90
17740;DHT22;8990;33.226;-97.150;2023-05-10T09:02:18;23.40;99.90
17740;DHT22;8990;33.226;-97.150;2023-05-10T09:04:48;23.50;99.90
17740;DHT22;8990;33.226;-97.150;2023-05-10T09:07:19;23.40;99.90
17740;DHT22;8990;33.226;-97.150;2023-05-10T09:09:49;23.40;99.90
17740;DHT22;8990;33.226;-97.150;2023-05-10T09:12:19;23.40;99.90
17740;DHT22;8990;33.226;-97.150;2023-05-10T09:14:48;23.40;99.90
17740;DHT22;8990;33.226;-97.150;2023-05-10T09:17:18;23.40;99.90
17740;DHT22;8990;33.226;-97.150;2023-05-10T09:19:47;23.40;99.90
17740;DHT22;8990;33.226;-97.150;2023-05-10T09:22:18;23.30;99.90
17740;DHT22;8990;33.226;-97.150;2023-05-10T09:24:47;23.30;99.90
17740;DHT22;8990;33.226;-97.150;2023-05-10T09:27:16;23.30;99.90
17740;DHT22;8990;33.226;-97.150;2023-05-10T09:29:45;23.30;99.90
17740;DHT22;8990;33.226;-97.150;2023-05-10T09:32:15;23.30;99.90
17740;DHT22;8990;33.226;-97.150;2023-05-10T09:34:43;23.20;99.90
17740;DHT22;8990;33.226;-97.150;2023-05-10T09:37:12;23.10;99.90
17740;DHT22;8990;33.226;-97.150;2023-05-10T09:39:43;23.20;99.90
17740;DHT22;8990;33.226;-97.150;2023-05-10T09:42:11;23.20;99.90
17740;DHT22;8990;33.226;-97.150;2023-05-10T09:44:40;23.10;99.90
17740;DHT22;8990;33.226;-97.150;2023-05-10T09:47:17;23.10;99.90
17740;DHT22;8990;33.226;-97.150;2023-05-10T09:49:50;23.10;99.90
17740;DHT22;8990;33.226;-97.150;2023-05-10T09:52:19;23.10;99.90
17740;DHT22;8990;33.226;-97.150;2023-05-10T09:54:53;23.00;99.90
17740;DHT22;8990;33.226;-97.150;2023-05-10T09:57:24;23.10;99.90
17740;DHT22;8990;33.226;-97.150;2023-05-10T09:59:54;23.10;99.90
17740;DHT22;8990;33.226;-97.150;2023-05-10T10:02:29;23.00;99.90
17740;DHT22;8990;33.226;-97.150;2023-05-10T10:04:59;23.00;99.90
17740;DHT22;8990;33.226;-97.150;2023-05-10T10:07:29;22.90;99.90
17740;DHT22;8990;33.226;-97.150;2023-05-10T10:10:00;23.10;99.90
17740;DHT22;8990;33.226;-97.150;2023-05-10T10:12:29;23.10;99.90
17740;DHT22;8990;33.226;-97.150;2023-05-10T10:14:59;23.10;99.90
17740;DHT22;8990;33.226;-97.150;2023-05-10T10:17:31;23.00;99.90
17740;DHT22;8990;33.226;-97.150;2023-05-10T10:20:03;23.00;99.90
17740;DHT22;8990;33.226;-97.150;2023-05-10T10:25:02;23.00;99.90
17740;DHT22;8990;33.226;-97.150;2023-05-10T10:27:39;22.90;99.90
17740;DHT22;8990;33.226;-97.150;2023-05-10T10:30:20;22.90;99.90
17740;DHT22;8990;33.226;-97.150;2023-05-10T10:36:04;22.90;99.90
17740;DHT22;8990;33.226;-97.150;2023-05-10T10:38:38;22.80;99.90
17740;DHT22;8990;33.226;-97.150;2023-05-10T10:41:32;22.70;99.90
17740;DHT22;8990;33.226;-97.150;2023-05-10T10:44:33;22.60;99.90
17740;DHT22;8990;33.226;-97.150;2023-05-10T10:47:03;22.60;99.90
17740;DHT22;8990;33.226;-97.150;2023-05-10T10:49:42;22.40;99.90
17740;DHT22;8990;33.226;-97.150;2023-05-10T10:52:25;22.40;99.90
17740;DHT22;8990;33.226;-97.150;2023-05-10T10:55:01;22.30;99.90
17740;DHT22;8990;33.226;-97.150;2023-05-10T10:57:43;22.20;99.90
17740;DHT22;8990;33.226;-97.150;2023-05-10T11:00:22;22.10;99.90
17740;DHT22;8990;33.226;-97.150;2023-05-10T11:02:53;22.20;99.90
17740;DHT22;8990;33.226;-97.150;2023-05-10T11:05:37;22.00;99.90
17740;DHT22;8990;33.226;-97.150;2023-05-10T11:08:10;22.00;99.90
17740;DHT22;8990;33.226;-97.150;2023-05-10T11:10:48;21.90;99.90
17740;DHT22;8990;33.226;-97.150;2023-05-10T11:13:30;21.90;99.90
17740;DHT22;8990;33.226;-97.150;2023-05-10T11:15:59;21.80;99.90
17740;DHT22;8990;33.226;-97.150;2023-05-10T11:18:38;21.80;99.90
17740;DHT22;8990;33.226;-97.150;2023-05-10T11:21:08;21.80;99.90
17740;DHT22;8990;33.226;-97.150;2023-05-10T11:23:50;21.80;99.90
17740;DHT22;8990;33.226;-97.150;2023-05-10T11:26:19;21.70;99.90
17740;DHT22;8990;33.226;-97.150;2023-05-10T11:28:52;21.80;99.90
17740;DHT22;8990;33.226;-97.150;2023-05-10T11:31:23;21.80;99.90
17740;DHT22;8990;33.226;-97.150;2023-05-10T11:33:55;21.80;99.90
17740;DHT22;8990;33.226;-97.150;2023-05-10T11:36:26;21.70;99.90
17740;DHT22;8990;33.226;-97.150;2023-05-10T11:38:55;21.70;99.90
17740;DHT22;8990;33.226;-97.150;2023-05-10T11:41:26;21.70;99.90
17740;DHT22;8990;33.226;-97.150;2023-05-10T11:43:57;21.70;99.90
17740;DHT22;8990;33.226;-97.150;2023-05-10T11:46:27;21.70;99.90
17740;DHT22;8990;33.226;-97.150;2023-05-10T11:51:45;21.70;99.90
17740;DHT22;8990;33.226;-97.150;2023-05-10T11:54:14;21.80;99.90
17740;DHT22;8990;33.226;-97.150;2023-05-10T11:56:43;21.80;99.90
17740;DHT22;8990;33.226;-97.150;2023-05-10T11:59:14;21.80;99.90
17740;DHT22;8990;33.226;-97.150;2023-05-10T12:01:43;21.80;99.90
17740;DHT22;8990;33.226;-97.150;2023-05-10T12:04:12;21.70;99.90
17740;DHT22;8990;33.226;-97.150;2023-05-10T12:06:41;21.70;99.90
17740;DHT22;8990;33.226;-97.150;2023-05-10T12:09:12;21.70;99.90
17740;DHT22;8990;33.226;-97.150;2023-05-10T12:11:41;21.70;99.90
17740;DHT22;8990;33.226;-97.150;2023-05-10T12:14:10;21.70;99.90
17740;DHT22;8990;33.226;-97.150;2023-05-10T12:16:43;21.80;99.90
17740;DHT22;8990;33.226;-97.150;2023-05-10T12:19:12;21.90;99.90
17740;DHT22;8990;33.226;-97.150;2023-05-10T12:21:46;21.80;99.90
17740;DHT22;8990;33.226;-97.150;2023-05-10T12:24:15;21.80;99.90
17740;DHT22;8990;33.226;-97.150;2023-05-10T12:26:45;21.80;99.90
17740;DHT22;8990;33.226;-97.150;2023-05-10T12:29:16;21.80;99.90
17740;DHT22;8990;33.226;-97.150;2023-05-10T12:31:54;21.80;99.90
17740;DHT22;8990;33.226;-97.150;2023-05-10T12:34:29;21.80;99.90
17740;DHT22;8990;33.226;-97.150;2023-05-10T12:36:59;21.90;99.90
17740;DHT22;8990;33.226;-97.150;2023-05-10T12:39:39;21.90;99.90
17740;DHT22;8990;33.226;-97.150;2023-05-10T12:42:08;21.90;99.90
17740;DHT22;8990;33.226;-97.150;2023-05-10T12:44:40;22.00;99.90
17740;DHT22;8990;33.226;-97.150;2023-05-10T12:47:10;22.00;99.90
17740;DHT22;8990;33.226;-97.150;2023-05-10T12:49:40;22.00;99.90
17740;DHT22;8990;33.226;-97.150;2023-05-10T12:52:09;22.10;99.90
17740;DHT22;8990;33.226;-97.150;2023-05-10T12:54:38;22.20;99.90
17740;DHT22;8990;33.226;-97.150;2023-05-10T12:57:07;22.20;99.90
17740;DHT22;8990;33.226;-97.150;2023-05-10T12:59:35;22.30;99.90
17740;DHT22;8990;33.226;-97.150;2023-05-10T13:02:05;22.40;99.90
17740;DHT22;8990;33.226;-97.150;2023-05-10T13:04:37;22.50;99.90
17740;DHT22;8990;33.226;-97.150;2023-05-10T13:07:06;22.60;99.90
17740;DHT22;8990;33.226;-97.150;2023-05-10T13:09:36;22.60;99.90
17740;DHT22;8990;33.226;-97.150;2023-05-10T13:12:05;22.80;99.90
17740;DHT22;8990;33.226;-97.150;2023-05-10T13:14:34;22.90;99.90
17740;DHT22;8990;33.226;-97.150;2023-05-10T13:17:03;23.10;99.90
17740;DHT22;8990;33.226;-97.150;2023-05-10T13:19:32;23.20;99.90
17740;DHT22;8990;33.226;-97.150;2023-05-10T13:22:03;23.40;99.90
17740;DHT22;8990;33.226;-97.150;2023-05-10T13:24:32;23.50;99.90
17740;DHT22;8990;33.226;-97.150;2023-05-10T13:27:01;23.60;99.90
17740;DHT22;8990;33.226;-97.150;2023-05-10T13:29:30;23.70;99.90
17740;DHT22;8990;33.226;-97.150;2023-05-10T13:31:59;23.70;99.90
17740;DHT22;8990;33.226;-97.150;2023-05-10T13:34:28;23.80;99.90
17740;DHT22;8990;33.226;-97.150;2023-05-10T13:36:57;23.90;99.90
17740;DHT22;8990;33.226;-97.150;2023-05-10T13:39:27;24.00;99.90
17740;DHT22;8990;33.226;-97.150;2023-05-10T13:42:00;24.10;99.90
17740;DHT22;8990;33.226;-97.150;2023-05-10T13:44:29;24.20;99.90
17740;DHT22;8990;33.226;-97.150;2023-05-10T13:47:00;24.30;99.90
17740;DHT22;8990;33.226;-97.150;2023-05-10T13:49:29;24.30;99.90
17740;DHT22;8990;33.226;-97.150;2023-05-10T13:51:58;24.50;99.90
17740;DHT22;8990;33.226;-97.150;2023-05-10T13:54:35;24.60;99.90
17740;DHT22;8990;33.226;-97.150;2023-05-10T13:57:05;24.70;99.90
17740;DHT22;8990;33.226;-97.150;2023-05-10T13:59:34;24.80;99.90
17740;DHT22;8990;33.226;-97.150;2023-05-10T14:02:02;24.90;99.90
17740;DHT22;8990;33.226;-97.150;2023-05-10T14:04:31;24.90;99.90
17740;DHT22;8990;33.226;-97.150;2023-05-10T14:07:02;25.10;99.90
17740;DHT22;8990;33.226;-97.150;2023-05-10T14:09:31;25.00;99.90
17740;DHT22;8990;33.226;-97.150;2023-05-10T14:12:02;25.10;99.90
17740;DHT22;8990;33.226;-97.150;2023-05-10T14:14:31;25.20;99.90
17740;DHT22;8990;33.226;-97.150;2023-05-10T14:17:00;25.10;99.90
17740;DHT22;8990;33.226;-97.150;2023-05-10T14:19:29;25.00;99.90
17740;DHT22;8990;33.226;-97.150;2023-05-10T14:21:59;25.10;99.90
17740;DHT22;8990;33.226;-97.150;2023-05-10T14:24:28;25.10;99.90
17740;DHT22;8990;33.226;-97.150;2023-05-10T14:26:57;25.20;99.90
17740;DHT22;8990;33.226;-97.150;2023-05-10T14:29:28;25.10;99.90
17740;DHT22;8990;33.226;-97.150;2023-05-10T14:31:57;24.90;99.90
17740;DHT22;8990;33.226;-97.150;2023-05-10T14:34:26;24.90;99.90
17740;DHT22;8990;33.226;-97.150;2023-05-10T14:36:55;24.90;99.90
17740;DHT22;8990;33.226;-97.150;2023-05-10T14:39:25;25.10;99.90
17740;DHT22;8990;33.226;-97.150;2023-05-10T14:41:56;25.10;99.90
17740;DHT22;8990;33.226;-97.150;2023-05-10T14:44:27;25.20;99.90
17740;DHT22;8990;33.226;-97.150;2023-05-10T14:46:56;25.00;99.90
17740;DHT22;8990;33.226;-97.150;2023-05-10T14:49:26;25.10;99.90
17740;DHT22;8990;33.226;-97.150;2023-05-10T14:51:56;25.10;99.90
17740;DHT22;8990;33.226;-97.150;2023-05-10T14:54:25;25.10;99.90
17740;DHT22;8990;33.226;-97.150;2023-05-10T14:56:54;25.00;99.90
17740;DHT22;8990;33.226;-97.150;2023-05-10T14:59:23;25.10;99.90
17740;DHT22;8990;33.226;-97.150;2023-05-10T15:01:53;25.10;99.90
17740;DHT22;8990;33.226;-97.150;2023-05-10T15:04:22;25.20;99.90
17740;DHT22;8990;33.226;-97.150;2023-05-10T15:06:51;25.20;99.90
17740;DHT22;8990;33.226;-97.150;2023-05-10T15:09:25;25.10;99.90
17740;DHT22;8990;33.226;-97.150;2023-05-10T15:11:55;25.20;99.90
17740;DHT22;8990;33.226;-97.150;2023-05-10T15:14:24;25.30;99.90
17740;DHT22;8990;33.226;-97.150;2023-05-10T15:16:55;25.30;99.90
17740;DHT22;8990;33.226;-97.150;2023-05-10T15:19:24;25.30;99.90
17740;DHT22;8990;33.226;-97.150;2023-05-10T15:21:53;25.30;99.90
17740;DHT22;8990;33.226;-97.150;2023-05-10T15:24:22;25.40;99.90
17740;DHT22;8990;33.226;-97.150;2023-05-10T15:26:51;25.30;99.90
17740;DHT22;8990;33.226;-97.150;2023-05-10T15:29:21;25.40;99.90
17740;DHT22;8990;33.226;-97.150;2023-05-10T15:31:50;25.30;99.90
17740;DHT22;8990;33.226;-97.150;2023-05-10T15:34:21;25.10;99.90
17740;DHT22;8990;33.226;-97.150;2023-05-10T15:36:50;25.30;99.90
17740;DHT22;8990;33.226;-97.150;2023-05-10T15:39:19;25.30;99.90
17740;DHT22;8990;33.226;-97.150;2023-05-10T15:41:48;25.30;99.90
17740;DHT22;8990;33.226;-97.150;2023-05-10T15:44:17;25.40;99.90
17740;DHT22;8990;33.226;-97.150;2023-05-10T15:46:46;25.30;99.90